Time;durP1;ratioP1;P1;durP2;ratioP2;P2;SDS_P1;SDS_P2;PMS_P1;PMS_P2;Temp;Humidity;BMP_temperature;BMP_pressure;BME280_temperature;BME280_humidity;BME280_pressure;Samples;Min_cycle;Max_cycle;Signal;HPM_P1;HPM_P2
2022/12/19 00:02:02;;;;;;;;;;;0.70;99.90;;;;;;5076351;28;19993;-75
2022/12/19 00:04:27;;;;;;;;;;;0.80;99.90;;;;;;5064742;28;19936;-75
2022/12/19 00:06:55;;;;;;;;;;;0.80;99.90;;;;;;5076400;28;19924;-74
2022/12/19 00:09:20;;;;;;;;;;;0.80;99.90;;;;;;5078578;28;19970;-75
2022/12/19 00:11:47;;;;;;;;;;;0.80;99.90;;;;;;5077790;28;19924;-75
2022/12/19 00:14:12;;;;;;;;;;;0.80;99.90;;;;;;5074010;28;19935;-75
2022/12/19 00:16:38;;;;;;;;;;;0.80;99.90;;;;;;5071862;28;19925;-75
2022/12/19 00:19:04;;;;;;;;;;;0.80;99.90;;;;;;5076302;28;19950;-75
2022/12/19 00:21:31;;;;;;;;;;;0.80;99.90;;;;;;5074085;28;19929;-76
2022/12/19 00:23:56;;;;;;;;;;;0.90;99.90;;;;;;5062307;28;19940;-76
2022/12/19 00:26:24;;;;;;;;;;;0.90;99.90;;;;;;5072009;28;19925;-75
2022/12/19 00:28:52;;;;;;;;;;;1.00;99.90;;;;;;5075731;28;19928;-75
2022/12/19 00:31:18;;;;;;;;;;;1.00;99.90;;;;;;5078760;28;19933;-76
2022/12/19 00:33:44;;;;;;;;;;;1.00;99.90;;;;;;5077135;28;19951;-75
2022/12/19 00:36:11;;;;;;;;;;;1.00;99.90;;;;;;5071874;28;19928;-75
2022/12/19 00:38:37;;;;;;;;;;;1.10;99.90;;;;;;5074853;28;19935;-75
2022/12/19 00:41:06;;;;;;;;;;;1.00;99.90;;;;;;5074503;28;19925;-75
2022/12/19 00:43:32;;;;;;;;;;;1.00;99.90;;;;;;5073231;28;20354;-75
2022/12/19 00:46:00;;;;;;;;;;;1.00;99.90;;;;;;5077689;28;19936;-75
2022/12/19 00:48:25;;;;;;;;;;;1.00;99.90;;;;;;5076359;28;20380;-75
2022/12/19 00:50:57;;;;;;;;;;;1.00;99.90;;;;;;5073614;28;19928;-75
2022/12/19 00:53:23;;;;;;;;;;;1.10;99.90;;;;;;5077097;28;20011;-75
2022/12/19 00:55:48;;;;;;;;;;;1.10;99.90;;;;;;5077287;28;19936;-76
2022/12/19 00:58:14;;;;;;;;;;;1.10;99.90;;;;;;5078088;28;19925;-75
2022/12/19 01:00:39;;;;;;;;;;;1.10;99.90;;;;;;5077904;28;19928;-75
2022/12/19 01:03:05;;;;;;;;;;;1.10;99.90;;;;;;5076078;28;19924;-76
2022/12/19 01:05:30;;;;;;;;;;;1.10;99.90;;;;;;5064134;28;19992;-75
2022/12/19 01:07:56;;;;;;;;;;;1.10;99.90;;;;;;5072977;28;20945;-76
2022/12/19 01:10:21;;;;;;;;;;;1.10;99.90;;;;;;5077426;28;19925;-75
2022/12/19 01:12:47;;;;;;;;;;;1.10;99.90;;;;;;5075254;28;19928;-75
2022/12/19 01:15:17;;;;;;;;;;;1.10;99.90;;;;;;5076775;28;20646;-75
2022/12/19 01:17:43;;;;;;;;;;;1.20;99.90;;;;;;5070959;28;20350;-75
2022/12/19 01:20:09;;;;;;;;;;;1.20;99.90;;;;;;5073055;28;19924;-75
2022/12/19 01:22:34;;;;;;;;;;;1.20;99.90;;;;;;5074620;28;19925;-75
2022/12/19 01:25:00;;;;;;;;;;;1.20;99.90;;;;;;5068028;28;20054;-75
2022/12/19 01:27:25;;;;;;;;;;;1.30;99.90;;;;;;5076883;28;20315;-76
2022/12/19 01:29:51;;;;;;;;;;;1.30;99.90;;;;;;5072719;28;19928;-75
2022/12/19 01:32:17;;;;;;;;;;;1.30;99.90;;;;;;5075281;28;20027;-76
2022/12/19 01:34:42;;;;;;;;;;;1.30;99.90;;;;;;5075185;28;20379;-75
2022/12/19 01:37:08;;;;;;;;;;;1.30;99.90;;;;;;5067872;28;19928;-75
2022/12/19 01:39:33;;;;;;;;;;;1.30;99.90;;;;;;5059834;28;19929;-76
2022/12/19 01:41:59;;;;;;;;;;;1.40;99.90;;;;;;5067272;28;19981;-75
2022/12/19 01:44:25;;;;;;;;;;;1.40;99.90;;;;;;5070800;28;19928;-75
2022/12/19 01:46:56;;;;;;;;;;;1.40;99.90;;;;;;5069818;28;20414;-76
2022/12/19 01:49:32;;;;;;;;;;;1.40;99.90;;;;;;5077390;28;19998;-75
2022/12/19 01:51:59;;;;;;;;;;;1.40;99.90;;;;;;5073453;28;19971;-75
2022/12/19 01:54:26;;;;;;;;;;;1.40;99.90;;;;;;5078322;28;19924;-75
2022/12/19 01:56:54;;;;;;;;;;;1.40;99.90;;;;;;5081932;28;19929;-75
2022/12/19 01:59:22;;;;;;;;;;;1.50;99.90;;;;;;5079671;28;20032;-75
2022/12/19 02:01:50;;;;;;;;;;;1.50;99.90;;;;;;5076205;28;19979;-75
2022/12/19 02:04:16;;;;;;;;;;;1.40;99.90;;;;;;5075431;28;19925;-75
2022/12/19 02:06:42;;;;;;;;;;;1.40;99.90;;;;;;5074742;28;19925;-74
2022/12/19 02:09:08;;;;;;;;;;;1.40;99.90;;;;;;5076148;28;19935;-75
2022/12/19 02:11:33;;;;;;;;;;;1.40;99.90;;;;;;5069850;28;19925;-75
2022/12/19 02:13:59;;;;;;;;;;;1.40;99.90;;;;;;5078810;28;19924;-75
2022/12/19 02:16:24;;;;;;;;;;;1.40;99.90;;;;;;5081725;28;19967;-74
2022/12/19 02:19:11;;;;;;;;;;;1.30;99.90;;;;;;5076831;28;19928;-74
2022/12/19 02:21:48;;;;;;;;;;;1.30;99.90;;;;;;5080831;28;19963;-74
2022/12/19 02:24:23;;;;;;;;;;;1.30;99.90;;;;;;5077848;28;19982;-75
2022/12/19 02:27:01;;;;;;;;;;;1.30;99.90;;;;;;5079443;28;20163;-75
2022/12/19 02:29:32;;;;;;;;;;;1.30;99.90;;;;;;5078599;28;20403;-75
2022/12/19 02:32:04;;;;;;;;;;;1.30;99.90;;;;;;5079987;28;19936;-75
2022/12/19 02:34:33;;;;;;;;;;;1.20;99.90;;;;;;5076605;28;19925;-75
2022/12/19 02:37:06;;;;;;;;;;;1.30;99.90;;;;;;5079233;28;20647;-75
2022/12/19 02:39:41;;;;;;;;;;;1.30;99.90;;;;;;5074004;28;20314;-75
2022/12/19 02:42:08;;;;;;;;;;;1.40;99.90;;;;;;5058329;28;19932;-75
2022/12/19 02:44:49;;;;;;;;;;;1.40;99.90;;;;;;5079772;28;19933;-75
2022/12/19 02:47:15;;;;;;;;;;;1.40;99.90;;;;;;5081039;28;19925;-75
2022/12/19 02:49:40;;;;;;;;;;;1.40;99.90;;;;;;5067278;28;19925;-75
2022/12/19 02:52:09;;;;;;;;;;;1.40;99.90;;;;;;5078452;28;19935;-75
2022/12/19 02:54:35;;;;;;;;;;;1.50;99.90;;;;;;5068994;28;19972;-75
2022/12/19 02:57:08;;;;;;;;;;;1.50;99.90;;;;;;5079005;28;19960;-75
2022/12/19 02:59:40;;;;;;;;;;;1.50;99.90;;;;;;5079472;28;19946;-75
2022/12/19 03:02:08;;;;;;;;;;;1.60;99.90;;;;;;5073119;28;19974;-76
2022/12/19 03:04:49;;;;;;;;;;;1.60;99.90;;;;;;5073065;28;19936;-75
2022/12/19 03:07:17;;;;;;;;;;;1.60;99.90;;;;;;5074306;28;20275;-75
2022/12/19 03:09:52;;;;;;;;;;;1.70;99.90;;;;;;5070891;28;19931;-75
2022/12/19 03:12:27;;;;;;;;;;;1.70;99.90;;;;;;5078135;28;19935;-75
2022/12/19 03:14:53;;;;;;;;;;;1.70;99.90;;;;;;5080080;28;19989;-75
2022/12/19 03:17:19;;;;;;;;;;;1.80;99.90;;;;;;5077751;28;19931;-75
2022/12/19 03:19:45;;;;;;;;;;;1.80;99.90;;;;;;5050976;28;19955;-75
2022/12/19 03:22:10;;;;;;;;;;;1.80;99.90;;;;;;5069055;28;19929;-75
2022/12/19 03:24:36;;;;;;;;;;;1.80;99.90;;;;;;5078528;28;20458;-75
2022/12/19 03:27:09;;;;;;;;;;;1.80;99.90;;;;;;5079846;28;19925;-74
2022/12/19 03:29:38;;;;;;;;;;;1.80;99.90;;;;;;5072621;28;19929;-75
2022/12/19 03:32:06;;;;;;;;;;;1.80;99.90;;;;;;5079364;28;19970;-75
2022/12/19 03:34:35;;;;;;;;;;;1.80;99.90;;;;;;5078812;28;19928;-75
2022/12/19 03:37:02;;;;;;;;;;;1.80;99.90;;;;;;5072157;28;19959;-75
2022/12/19 03:39:29;;;;;;;;;;;1.90;99.90;;;;;;5075738;28;20473;-75
2022/12/19 03:44:41;;;;;;;;;;;1.90;99.90;;;;;;5075199;28;19978;-75
2022/12/19 03:47:19;;;;;;;;;;;1.90;99.90;;;;;;5076843;28;20199;-75
2022/12/19 03:49:46;;;;;;;;;;;1.90;99.90;;;;;;5076241;28;19948;-75
2022/12/19 03:52:27;;;;;;;;;;;1.90;99.90;;;;;;5078970;28;19925;-75
2022/12/19 03:55:15;;;;;;;;;;;2.00;99.90;;;;;;5074439;28;20434;-75
2022/12/19 03:57:58;;;;;;;;;;;2.00;99.90;;;;;;5076071;28;20365;-75
2022/12/19 04:00:24;;;;;;;;;;;2.00;99.90;;;;;;5075415;28;19953;-76
2022/12/19 04:02:51;;;;;;;;;;;2.00;99.90;;;;;;5077796;28;19929;-75
2022/12/19 04:05:19;;;;;;;;;;;2.10;99.90;;;;;;5077169;28;19936;-75
2022/12/19 04:07:45;;;;;;;;;;;2.10;99.90;;;;;;5076552;28;19928;-75
2022/12/19 04:10:19;;;;;;;;;;;2.10;99.90;;;;;;5076897;28;19947;-75
2022/12/19 04:12:47;;;;;;;;;;;2.10;99.90;;;;;;5072751;28;19928;-75
2022/12/19 04:15:13;;;;;;;;;;;2.10;99.90;;;;;;5076100;28;19929;-75
2022/12/19 04:17:45;;;;;;;;;;;2.20;99.90;;;;;;5078261;28;19932;-75
2022/12/19 04:20:10;;;;;;;;;;;2.20;99.90;;;;;;5070860;28;19959;-75
2022/12/19 04:22:41;;;;;;;;;;;2.30;99.90;;;;;;5074636;28;19936;-74
2022/12/19 04:25:12;;;;;;;;;;;2.30;99.90;;;;;;5077141;28;19924;-75
2022/12/19 04:27:40;;;;;;;;;;;2.30;99.90;;;;;;5079618;28;19971;-75
2022/12/19 04:30:06;;;;;;;;;;;2.30;99.90;;;;;;5069085;28;20548;-75
2022/12/19 04:32:32;;;;;;;;;;;2.30;99.90;;;;;;5077273;28;19936;-74
2022/12/19 04:34:58;;;;;;;;;;;2.40;99.90;;;;;;5054119;28;19928;-74
2022/12/19 04:37:24;;;;;;;;;;;2.40;99.90;;;;;;5076532;28;19931;-75
2022/12/19 04:39:50;;;;;;;;;;;2.40;99.90;;;;;;5073339;28;19939;-75
2022/12/19 04:42:15;;;;;;;;;;;2.50;99.90;;;;;;5064705;28;19928;-75
2022/12/19 04:44:41;;;;;;;;;;;2.50;99.90;;;;;;5075598;28;19929;-74
2022/12/19 04:47:06;;;;;;;;;;;2.50;99.90;;;;;;5075174;28;19925;-75
2022/12/19 04:49:32;;;;;;;;;;;2.50;99.90;;;;;;5079157;28;20023;-75
2022/12/19 04:51:57;;;;;;;;;;;2.60;99.90;;;;;;5071671;28;19928;-75
2022/12/19 04:54:23;;;;;;;;;;;2.60;99.90;;;;;;5078014;28;19925;-75
2022/12/19 04:56:48;;;;;;;;;;;2.60;99.90;;;;;;5076931;28;20007;-75
2022/12/19 04:59:14;;;;;;;;;;;2.70;99.90;;;;;;5073273;28;19928;-75
2022/12/19 05:01:39;;;;;;;;;;;2.70;99.90;;;;;;5070517;28;19935;-75
2022/12/19 05:04:05;;;;;;;;;;;2.70;99.90;;;;;;5065522;28;19924;-75
2022/12/19 05:06:31;;;;;;;;;;;2.90;99.90;;;;;;5074743;28;19988;-76
2022/12/19 05:08:56;;;;;;;;;;;2.80;99.90;;;;;;5076729;28;19929;-76
2022/12/19 05:11:22;;;;;;;;;;;2.80;99.90;;;;;;5076173;28;19928;-76
2022/12/19 05:13:48;;;;;;;;;;;2.80;99.90;;;;;;5078062;28;19933;-77
2022/12/19 05:16:14;;;;;;;;;;;2.90;99.90;;;;;;5078465;28;19924;-76
2022/12/19 05:18:40;;;;;;;;;;;2.90;99.90;;;;;;5072445;28;20299;-76
2022/12/19 05:21:06;;;;;;;;;;;3.00;99.90;;;;;;5077368;28;19924;-76
2022/12/19 05:23:32;;;;;;;;;;;3.00;99.90;;;;;;5074405;28;20398;-76
2022/12/19 05:25:58;;;;;;;;;;;3.10;99.90;;;;;;5080225;28;20434;-76
2022/12/19 05:28:24;;;;;;;;;;;3.10;99.90;;;;;;5069075;28;19935;-76
2022/12/19 05:30:49;;;;;;;;;;;3.20;99.90;;;;;;5077774;28;20004;-76
2022/12/19 05:33:15;;;;;;;;;;;3.20;99.90;;;;;;5075335;28;20314;-84
2022/12/19 05:35:41;;;;;;;;;;;3.20;99.90;;;;;;5058464;28;19929;-83
2022/12/19 05:38:06;;;;;;;;;;;3.30;99.90;;;;;;5076632;28;19935;-83
2022/12/19 05:40:32;;;;;;;;;;;3.30;99.90;;;;;;5075914;28;19967;-82
2022/12/19 05:42:57;;;;;;;;;;;3.40;99.90;;;;;;5060101;28;19960;-81
2022/12/19 05:45:23;;;;;;;;;;;3.40;99.90;;;;;;5054979;28;19928;-83
2022/12/19 05:47:49;;;;;;;;;;;3.50;99.90;;;;;;5077478;28;19924;-81
2022/12/19 05:50:15;;;;;;;;;;;3.50;99.90;;;;;;5071459;28;20316;-83
2022/12/19 05:52:40;;;;;;;;;;;3.50;99.90;;;;;;5053444;28;19925;-82
2022/12/19 05:55:06;;;;;;;;;;;3.50;99.90;;;;;;5059968;28;19999;-82
2022/12/19 05:57:32;;;;;;;;;;;3.60;99.90;;;;;;5076039;28;19925;-84
2022/12/19 05:59:58;;;;;;;;;;;3.60;99.90;;;;;;5071043;28;19947;-83
2022/12/19 06:02:23;;;;;;;;;;;3.60;99.90;;;;;;5058821;28;19924;-83
2022/12/19 06:04:49;;;;;;;;;;;3.60;99.90;;;;;;5072077;28;19925;-83
2022/12/19 06:07:14;;;;;;;;;;;3.60;99.90;;;;;;5062334;28;19929;-82
2022/12/19 06:09:40;;;;;;;;;;;3.60;99.90;;;;;;5079295;28;19925;-82
2022/12/19 06:12:06;;;;;;;;;;;3.60;99.90;;;;;;5077904;28;19925;-83
2022/12/19 06:14:32;;;;;;;;;;;3.70;99.90;;;;;;5079142;28;19928;-83
2022/12/19 06:16:57;;;;;;;;;;;3.70;99.90;;;;;;5078268;28;20583;-84
2022/12/19 06:19:23;;;;;;;;;;;3.70;99.90;;;;;;5075206;28;19928;-82
2022/12/19 06:21:48;;;;;;;;;;;3.80;99.90;;;;;;5077252;28;19995;-81
2022/12/19 06:24:14;;;;;;;;;;;3.80;99.90;;;;;;5079334;28;19988;-81
2022/12/19 06:26:40;;;;;;;;;;;3.80;99.90;;;;;;5072836;28;20452;-82
2022/12/19 06:29:05;;;;;;;;;;;3.80;99.90;;;;;;5077039;28;20394;-81
2022/12/19 06:31:31;;;;;;;;;;;3.80;99.90;;;;;;5061286;28;19929;-81
2022/12/19 06:33:56;;;;;;;;;;;3.90;99.90;;;;;;5077193;28;19981;-81
2022/12/19 06:36:26;;;;;;;;;;;3.90;99.90;;;;;;5080486;28;20119;-82
2022/12/19 06:38:52;;;;;;;;;;;3.90;99.90;;;;;;5058266;28;19948;-81
2022/12/19 06:44:04;;;;;;;;;;;4.00;99.90;;;;;;5072768;28;19932;-81
2022/12/19 06:46:30;;;;;;;;;;;4.00;99.90;;;;;;5070605;28;20307;-80
2022/12/19 06:48:56;;;;;;;;;;;4.00;99.90;;;;;;5076820;28;19995;-75
2022/12/19 06:51:21;;;;;;;;;;;4.00;99.90;;;;;;5066819;28;19939;-76
2022/12/19 06:53:47;;;;;;;;;;;4.00;99.90;;;;;;5076036;28;20421;-75
2022/12/19 06:56:14;;;;;;;;;;;4.00;99.90;;;;;;5080897;28;20069;-75
2022/12/19 06:58:39;;;;;;;;;;;4.00;99.90;;;;;;5081478;28;19924;-75
2022/12/19 07:01:05;;;;;;;;;;;4.10;99.90;;;;;;5079025;28;19979;-76
2022/12/19 07:03:33;;;;;;;;;;;4.10;99.90;;;;;;5080806;28;19932;-76
2022/12/19 07:05:59;;;;;;;;;;;4.10;99.90;;;;;;5082439;28;19950;-76
2022/12/19 07:08:28;;;;;;;;;;;4.10;99.90;;;;;;5073397;28;19929;-75
2022/12/19 07:10:54;;;;;;;;;;;4.10;99.90;;;;;;5073680;28;19946;-76
2022/12/19 07:13:20;;;;;;;;;;;4.10;99.90;;;;;;5079576;28;19925;-75
2022/12/19 07:15:45;;;;;;;;;;;4.20;99.90;;;;;;5080665;28;19950;-75
2022/12/19 07:18:11;;;;;;;;;;;4.30;99.90;;;;;;5080833;28;19932;-76
2022/12/19 07:20:38;;;;;;;;;;;4.20;99.90;;;;;;5079558;28;19925;-76
2022/12/19 07:23:05;;;;;;;;;;;4.30;99.90;;;;;;5079769;28;19928;-76
2022/12/19 07:25:31;;;;;;;;;;;4.30;99.90;;;;;;5078977;28;19924;-76
2022/12/19 07:27:56;;;;;;;;;;;4.30;99.90;;;;;;5080769;28;20986;-75
2022/12/19 07:30:22;;;;;;;;;;;4.30;99.90;;;;;;5080211;28;20475;-76
2022/12/19 07:32:47;;;;;;;;;;;4.30;99.90;;;;;;5079276;28;19929;-76
2022/12/19 07:35:13;;;;;;;;;;;4.40;99.90;;;;;;5079769;28;19971;-76
2022/12/19 07:37:39;;;;;;;;;;;4.40;99.90;;;;;;5080228;28;19924;-75
2022/12/19 07:40:05;;;;;;;;;;;4.40;99.90;;;;;;5070948;28;19925;-75
2022/12/19 07:42:30;;;;;;;;;;;4.50;99.90;;;;;;5065786;28;19928;-75
2022/12/19 07:44:56;;;;;;;;;;;4.50;99.90;;;;;;5093359;28;19967;-75
2022/12/19 07:47:21;;;;;;;;;;;4.50;99.90;;;;;;5079174;28;19935;-75
2022/12/19 07:49:47;;;;;;;;;;;4.50;99.90;;;;;;5082070;28;19925;-75
2022/12/19 07:52:12;;;;;;;;;;;4.60;99.90;;;;;;5087829;28;19932;-74
2022/12/19 07:54:39;;;;;;;;;;;4.60;99.90;;;;;;5073491;28;20579;-75
2022/12/19 07:57:06;;;;;;;;;;;4.60;99.90;;;;;;5079752;28;19928;-75
2022/12/19 07:59:31;;;;;;;;;;;4.60;99.90;;;;;;5079804;28;19924;-75
2022/12/19 08:01:57;;;;;;;;;;;4.70;99.90;;;;;;5075877;28;20421;-75
2022/12/19 08:04:22;;;;;;;;;;;4.70;99.90;;;;;;5076345;28;20515;-75
2022/12/19 08:06:48;;;;;;;;;;;4.70;99.90;;;;;;5079686;28;19935;-75
2022/12/19 08:09:14;;;;;;;;;;;4.70;99.90;;;;;;5079299;28;19950;-75
2022/12/19 08:11:39;;;;;;;;;;;4.80;99.90;;;;;;5076346;28;19939;-75
2022/12/19 08:14:05;;;;;;;;;;;4.80;99.90;;;;;;5077286;28;19924;-74
2022/12/19 08:16:30;;;;;;;;;;;4.80;99.90;;;;;;5076860;28;19925;-75
2022/12/19 08:18:56;;;;;;;;;;;4.90;99.90;;;;;;5078055;28;19925;-75
2022/12/19 08:21:22;;;;;;;;;;;4.90;99.90;;;;;;5077942;28;19929;-75
2022/12/19 08:23:48;;;;;;;;;;;5.00;99.90;;;;;;5080954;28;19924;-75
2022/12/19 08:26:14;;;;;;;;;;;5.00;99.90;;;;;;5068505;28;20421;-75
2022/12/19 08:28:40;;;;;;;;;;;5.00;99.90;;;;;;5080560;28;19924;-75
2022/12/19 08:31:10;;;;;;;;;;;5.10;99.90;;;;;;5080120;28;19925;-74
2022/12/19 08:33:36;;;;;;;;;;;5.10;99.90;;;;;;5089709;28;19931;-74
2022/12/19 08:36:06;;;;;;;;;;;5.10;99.90;;;;;;5081303;28;19924;-74
2022/12/19 08:38:31;;;;;;;;;;;5.10;99.90;;;;;;5080786;28;19935;-75
2022/12/19 08:40:57;;;;;;;;;;;5.20;99.90;;;;;;5079470;28;19924;-75
2022/12/19 08:43:22;;;;;;;;;;;5.20;99.90;;;;;;5079038;28;19924;-75
2022/12/19 08:45:49;;;;;;;;;;;5.20;99.90;;;;;;5079612;28;19928;-75
2022/12/19 08:48:15;;;;;;;;;;;5.30;99.90;;;;;;5079468;28;19928;-74
2022/12/19 08:50:47;;;;;;;;;;;5.40;99.90;;;;;;5076514;28;19925;-74
2022/12/19 08:53:13;;;;;;;;;;;5.40;99.90;;;;;;5092272;28;20257;-74
2022/12/19 08:55:39;;;;;;;;;;;5.50;99.90;;;;;;5069150;28;19929;-75
2022/12/19 08:58:04;;;;;;;;;;;5.50;99.90;;;;;;5079051;28;20022;-75
2022/12/19 09:00:30;;;;;;;;;;;5.60;99.90;;;;;;5082205;28;19934;-75
2022/12/19 09:02:55;;;;;;;;;;;5.70;99.90;;;;;;5081611;28;19977;-75
2022/12/19 09:05:21;;;;;;;;;;;5.70;99.90;;;;;;5082649;28;19939;-75
2022/12/19 09:07:46;;;;;;;;;;;5.70;99.90;;;;;;5083139;28;19928;-75
2022/12/19 09:10:12;;;;;;;;;;;5.80;99.90;;;;;;5077282;28;20528;-77
2022/12/19 09:12:37;;;;;;;;;;;5.80;99.90;;;;;;5077429;28;19960;-77
2022/12/19 09:15:03;;;;;;;;;;;5.90;99.90;;;;;;5081851;28;19939;-75
2022/12/19 09:17:29;;;;;;;;;;;5.90;99.90;;;;;;5082888;28;20046;-75
2022/12/19 09:19:54;;;;;;;;;;;5.90;99.90;;;;;;5082272;28;19924;-76
2022/12/19 09:22:20;;;;;;;;;;;6.00;99.90;;;;;;5082526;28;20062;-76
2022/12/19 09:24:45;;;;;;;;;;;6.00;99.90;;;;;;5082967;28;19924;-76
2022/12/19 09:27:11;;;;;;;;;;;6.00;99.90;;;;;;5082848;28;19946;-76
2022/12/19 09:29:37;;;;;;;;;;;6.00;99.90;;;;;;5082441;28;19970;-76
2022/12/19 09:32:02;;;;;;;;;;;6.00;99.90;;;;;;5082168;28;19925;-76
2022/12/19 09:34:28;;;;;;;;;;;6.00;99.90;;;;;;5081829;28;19928;-76
2022/12/19 09:36:53;;;;;;;;;;;6.10;99.90;;;;;;5083366;28;19930;-76
2022/12/19 09:39:19;;;;;;;;;;;6.10;99.90;;;;;;5082354;28;19935;-75
2022/12/19 09:41:53;;;;;;;;;;;6.20;99.90;;;;;;5079204;28;20047;-75
2022/12/19 09:44:34;;;;;;;;;;;6.20;99.90;;;;;;5082602;28;19928;-75
2022/12/19 09:47:01;;;;;;;;;;;6.30;99.90;;;;;;5082278;28;19956;-75
2022/12/19 09:49:37;;;;;;;;;;;6.30;99.90;;;;;;5082766;28;20402;-75
2022/12/19 09:52:09;;;;;;;;;;;6.30;99.90;;;;;;5081053;28;19928;-75
2022/12/19 09:54:47;;;;;;;;;;;6.40;99.90;;;;;;5079248;28;19944;-75
2022/12/19 09:57:15;;;;;;;;;;;6.40;99.90;;;;;;5082432;28;19925;-75
2022/12/19 09:59:52;;;;;;;;;;;6.50;99.90;;;;;;5081595;28;19925;-75
2022/12/19 10:02:21;;;;;;;;;;;6.40;99.90;;;;;;5082613;28;19972;-78
2022/12/19 10:04:49;;;;;;;;;;;6.40;99.90;;;;;;5078950;28;19924;-76
2022/12/19 10:07:17;;;;;;;;;;;6.50;99.90;;;;;;5082399;28;19924;-76
2022/12/19 10:09:42;;;;;;;;;;;6.50;99.90;;;;;;5081409;28;19924;-76
2022/12/19 10:12:08;;;;;;;;;;;6.50;99.90;;;;;;5081980;28;19928;-76
2022/12/19 10:14:53;;;;;;;;;;;6.60;99.90;;;;;;5081045;28;19924;-77
2022/12/19 10:17:24;;;;;;;;;;;6.60;99.90;;;;;;5080190;28;19935;-77
2022/12/19 10:19:58;;;;;;;;;;;6.70;99.90;;;;;;5080997;28;19924;-76
2022/12/19 10:22:37;;;;;;;;;;;6.70;99.90;;;;;;5081780;28;19936;-76
2022/12/19 10:25:05;;;;;;;;;;;6.70;99.90;;;;;;5081703;28;20381;-77
2022/12/19 10:27:53;;;;;;;;;;;6.80;99.90;;;;;;5080680;28;19932;-77
2022/12/19 10:30:20;;;;;;;;;;;6.80;99.90;;;;;;5079307;28;19929;-78
2022/12/19 10:33:05;;;;;;;;;;;6.80;99.90;;;;;;5082062;28;19925;-77
2022/12/19 10:35:33;;;;;;;;;;;6.90;99.90;;;;;;5081324;28;20110;-77
2022/12/19 10:38:18;;;;;;;;;;;6.90;99.90;;;;;;5080028;28;19928;-77
2022/12/19 10:40:44;;;;;;;;;;;7.00;99.90;;;;;;5020049;28;19924;-77
2022/12/19 10:43:28;;;;;;;;;;;7.00;99.90;;;;;;5079948;28;19924;-77
2022/12/19 10:45:57;;;;;;;;;;;7.00;99.90;;;;;;5080173;28;19928;-77
2022/12/19 10:48:23;;;;;;;;;;;7.10;99.90;;;;;;5080054;28;19973;-77
2022/12/19 10:50:49;;;;;;;;;;;7.10;99.90;;;;;;5079223;28;19929;-77
2022/12/19 10:53:15;;;;;;;;;;;7.10;99.90;;;;;;5081289;28;19967;-77
2022/12/19 10:55:48;;;;;;;;;;;7.10;99.90;;;;;;5080696;28;19931;-78
2022/12/19 10:58:18;;;;;;;;;;;7.20;99.90;;;;;;5080025;28;20511;-78
2022/12/19 11:01:01;;;;;;;;;;;7.20;99.90;;;;;;5079758;28;19964;-77
2022/12/19 11:03:27;;;;;;;;;;;7.20;99.90;;;;;;5080872;28;19924;-78
2022/12/19 11:05:54;;;;;;;;;;;7.10;99.90;;;;;;5079236;28;20014;-78
2022/12/19 11:08:24;;;;;;;;;;;7.20;99.90;;;;;;5079023;28;19924;-78
2022/12/19 11:10:49;;;;;;;;;;;7.30;99.90;;;;;;5079389;28;19925;-79
2022/12/19 11:13:19;;;;;;;;;;;7.30;99.90;;;;;;5080564;28;19932;-78
2022/12/19 11:15:46;;;;;;;;;;;7.30;99.90;;;;;;5081352;28;19924;-78
2022/12/19 11:18:11;;;;;;;;;;;7.30;99.90;;;;;;5079150;28;19967;-78
2022/12/19 11:20:37;;;;;;;;;;;7.30;99.90;;;;;;5076292;28;19929;-78
2022/12/19 11:23:03;;;;;;;;;;;7.30;99.90;;;;;;5076212;28;20409;-78
2022/12/19 11:25:39;;;;;;;;;;;7.30;99.90;;;;;;5078573;28;19929;-78
2022/12/19 11:28:24;;;;;;;;;;;7.30;99.90;;;;;;5079349;28;19955;-78
2022/12/19 11:30:57;;;;;;;;;;;7.40;99.90;;;;;;5079909;28;19928;-78
2022/12/19 11:33:23;;;;;;;;;;;7.40;99.90;;;;;;5076991;28;19958;-78
2022/12/19 11:35:50;;;;;;;;;;;7.40;99.90;;;;;;5078470;28;19928;-78
2022/12/19 11:38:19;;;;;;;;;;;7.40;99.90;;;;;;5076802;28;19954;-79
2022/12/19 11:40:50;;;;;;;;;;;7.40;99.90;;;;;;5078640;28;19977;-78
2022/12/19 11:43:19;;;;;;;;;;;7.40;99.90;;;;;;5076960;28;19924;-79
2022/12/19 11:45:50;;;;;;;;;;;7.40;99.90;;;;;;5079228;28;19925;-78
2022/12/19 11:48:22;;;;;;;;;;;7.40;99.90;;;;;;5078557;28;20010;-78
2022/12/19 11:50:54;;;;;;;;;;;7.50;99.90;;;;;;5066528;28;19939;-79
2022/12/19 11:53:25;;;;;;;;;;;7.50;99.90;;;;;;5061018;28;19988;-78
2022/12/19 11:55:54;;;;;;;;;;;7.50;99.90;;;;;;5079732;28;19925;-78
2022/12/19 11:58:21;;;;;;;;;;;7.50;99.90;;;;;;5079068;28;19986;-78
2022/12/19 12:00:49;;;;;;;;;;;7.50;99.90;;;;;;5079800;28;19931;-79
2022/12/19 12:03:45;;;;;;;;;;;7.50;99.90;;;;;;5077419;28;20415;-79
2022/12/19 12:06:15;;;;;;;;;;;7.50;99.90;;;;;;5043259;28;19984;-78
2022/12/19 12:08:40;;;;;;;;;;;7.50;99.90;;;;;;5061217;28;19924;-78
2022/12/19 12:11:12;;;;;;;;;;;7.60;99.90;;;;;;5079224;28;20015;-78
2022/12/19 12:13:51;;;;;;;;;;;7.60;99.90;;;;;;5077098;28;19933;-79
2022/12/19 12:16:17;;;;;;;;;;;7.60;99.90;;;;;;5078755;28;20403;-79
2022/12/19 12:18:45;;;;;;;;;;;7.60;99.90;;;;;;5078459;28;19928;-80
2022/12/19 12:21:23;;;;;;;;;;;7.60;99.90;;;;;;5053678;28;19932;-79
2022/12/19 12:24:08;;;;;;;;;;;7.60;99.90;;;;;;5073154;28;19935;-79
2022/12/19 12:26:58;;;;;;;;;;;7.60;99.90;;;;;;5068073;28;19928;-79
2022/12/19 12:29:25;;;;;;;;;;;7.60;99.90;;;;;;5079371;28;19939;-79
2022/12/19 12:32:10;;;;;;;;;;;7.70;99.90;;;;;;5078238;28;19946;-79
2022/12/19 12:34:52;;;;;;;;;;;7.70;99.90;;;;;;5077942;28;19934;-79
2022/12/19 12:37:20;;;;;;;;;;;7.70;99.90;;;;;;5072697;28;19925;-79
2022/12/19 12:39:49;;;;;;;;;;;7.70;99.90;;;;;;5076451;28;19932;-78
2022/12/19 12:42:30;;;;;;;;;;;7.70;99.90;;;;;;5061142;28;20416;-80
2022/12/19 12:44:57;;;;;;;;;;;7.80;99.90;;;;;;5060043;28;19929;-79
2022/12/19 12:47:24;;;;;;;;;;;7.70;99.90;;;;;;5060102;28;19924;-79
2022/12/19 12:49:50;;;;;;;;;;;7.70;99.90;;;;;;5078111;28;19929;-79
2022/12/19 12:52:18;;;;;;;;;;;7.80;99.90;;;;;;5079032;28;19924;-79
2022/12/19 12:54:46;;;;;;;;;;;7.80;99.90;;;;;;5079583;28;19947;-79
2022/12/19 12:57:19;;;;;;;;;;;7.80;99.90;;;;;;5077330;28;19946;-79
2022/12/19 12:59:46;;;;;;;;;;;7.80;99.90;;;;;;5077625;28;19925;-78
2022/12/19 13:02:14;;;;;;;;;;;7.80;99.90;;;;;;5079485;28;20478;-78
2022/12/19 13:04:54;;;;;;;;;;;7.80;99.90;;;;;;5060477;28;19925;-78
2022/12/19 13:07:27;;;;;;;;;;;7.80;99.90;;;;;;5073996;28;19925;-79
2022/12/19 13:10:04;;;;;;;;;;;7.80;99.90;;;;;;5076761;28;19935;-78
2022/12/19 13:15:26;;;;;;;;;;;7.80;99.90;;;;;;5079044;28;19940;-79
2022/12/19 13:17:51;;;;;;;;;;;7.90;99.90;;;;;;5076254;28;19931;-79
2022/12/19 13:20:17;;;;;;;;;;;7.80;99.90;;;;;;5079173;28;20014;-78
2022/12/19 13:22:44;;;;;;;;;;;7.90;99.90;;;;;;5077773;28;19928;-79
2022/12/19 13:25:24;;;;;;;;;;;7.90;99.90;;;;;;5078961;28;19936;-78
2022/12/19 13:27:54;;;;;;;;;;;7.90;99.90;;;;;;5065395;28;20268;-78
2022/12/19 13:30:20;;;;;;;;;;;8.00;99.90;;;;;;5077566;28;19924;-78
2022/12/19 13:32:46;;;;;;;;;;;8.00;99.90;;;;;;5079333;28;19924;-78
2022/12/19 13:35:20;;;;;;;;;;;8.00;99.90;;;;;;5077207;28;19970;-78
2022/12/19 13:37:50;;;;;;;;;;;8.00;99.90;;;;;;5076987;28;19964;-78
2022/12/19 13:40:15;;;;;;;;;;;8.10;99.90;;;;;;5075833;28;19924;-78
2022/12/19 13:45:59;;;;;;;;;;;8.10;99.90;;;;;;5081330;28;19940;-77
2022/12/19 13:48:33;;;;;;;;;;;8.10;99.90;;;;;;5081730;28;19924;-78
2022/12/19 13:51:03;;;;;;;;;;;8.10;99.90;;;;;;5074607;28;19935;-78
2022/12/19 13:53:28;;;;;;;;;;;8.10;99.90;;;;;;5081098;28;19933;-78
2022/12/19 13:55:57;;;;;;;;;;;8.20;99.90;;;;;;5080931;28;19951;-78
2022/12/19 13:58:25;;;;;;;;;;;8.10;99.90;;;;;;5082696;28;19931;-78
2022/12/19 14:00:52;;;;;;;;;;;8.10;99.90;;;;;;5079911;28;19925;-78
2022/12/19 14:03:21;;;;;;;;;;;8.10;99.90;;;;;;5078681;28;19925;-78
2022/12/19 14:05:46;;;;;;;;;;;8.10;99.90;;;;;;5082250;28;19987;-78
2022/12/19 14:08:15;;;;;;;;;;;8.10;99.90;;;;;;5080631;28;20106;-78
2022/12/19 14:10:43;;;;;;;;;;;8.20;99.90;;;;;;5079877;28;19928;-78
2022/12/19 14:15:57;;;;;;;;;;;8.10;99.90;;;;;;5073299;28;19928;-78
2022/12/19 14:18:22;;;;;;;;;;;8.20;99.90;;;;;;5081979;28;19978;-77
2022/12/19 14:20:49;;;;;;;;;;;8.20;99.90;;;;;;5079123;28;19929;-78
2022/12/19 14:23:15;;;;;;;;;;;8.20;99.90;;;;;;5080873;28;19990;-78
2022/12/19 14:25:40;;;;;;;;;;;8.20;99.90;;;;;;5081221;28;19928;-78
2022/12/19 14:28:09;;;;;;;;;;;8.20;99.90;;;;;;5064444;28;20681;-78
2022/12/19 14:30:36;;;;;;;;;;;8.20;99.90;;;;;;5079491;28;20184;-77
2022/12/19 14:33:12;;;;;;;;;;;8.20;99.90;;;;;;5080094;28;19940;-77
2022/12/19 14:35:44;;;;;;;;;;;8.20;99.90;;;;;;5081064;28;20006;-77
2022/12/19 14:38:13;;;;;;;;;;;8.20;99.90;;;;;;5080057;28;19931;-77
2022/12/19 14:40:40;;;;;;;;;;;8.20;99.90;;;;;;5082082;28;20027;-78
2022/12/19 14:46:19;;;;;;;;;;;8.10;99.90;;;;;;5081616;28;19928;-78
2022/12/19 14:48:47;;;;;;;;;;;8.10;99.90;;;;;;5081607;28;19947;-78
2022/12/19 14:51:14;;;;;;;;;;;8.10;99.90;;;;;;5062495;28;20089;-77
2022/12/19 14:53:59;;;;;;;;;;;8.10;99.90;;;;;;5080662;28;19924;-77
2022/12/19 14:56:25;;;;;;;;;;;8.10;99.90;;;;;;5078979;28;19924;-77